sensor_id;sensor_type;location;lat;lon;timestamp;P1;durP1;ratioP1;P2;durP2;ratioP2
6757;SDS011;3416;53.074;8.822;2023-03-14T00:00:35;5.82;;;3.22;;
6757;SDS011;3416;53.074;8.822;2023-03-14T00:03:02;8.85;;;4.07;;
6757;SDS011;3416;53.074;8.822;2023-03-14T00:05:29;10.52;;;4.05;;
6757;SDS011;3416;53.074;8.822;2023-03-14T00:07:56;9.95;;;4.85;;
6757;SDS011;3416;53.074;8.822;2023-03-14T00:10:23;5.38;;;3.10;;
6757;SDS011;3416;53.074;8.822;2023-03-14T00:12:50;10.07;;;5.28;;
6757;SDS011;3416;53.074;8.822;2023-03-14T00:15:17;6.45;;;3.78;;
6757;SDS011;3416;53.074;8.822;2023-03-14T00:17:45;6.53;;;4.03;;
6757;SDS011;3416;53.074;8.822;2023-03-14T00:20:13;6.75;;;3.38;;
6757;SDS011;3416;53.074;8.822;2023-03-14T00:22:40;9.63;;;3.38;;
6757;SDS011;3416;53.074;8.822;2023-03-14T00:25:08;8.70;;;4.07;;
6757;SDS011;3416;53.074;8.822;2023-03-14T00:27:36;9.73;;;4.30;;
6757;SDS011;3416;53.074;8.822;2023-03-14T00:30:04;11.88;;;4.70;;
6757;SDS011;3416;53.074;8.822;2023-03-14T00:32:32;13.60;;;4.32;;
6757;SDS011;3416;53.074;8.822;2023-03-14T00:35:01;8.50;;;3.97;;
6757;SDS011;3416;53.074;8.822;2023-03-14T00:37:28;10.40;;;4.38;;
6757;SDS011;3416;53.074;8.822;2023-03-14T00:39:56;7.10;;;3.35;;
6757;SDS011;3416;53.074;8.822;2023-03-14T00:42:23;11.45;;;4.18;;
6757;SDS011;3416;53.074;8.822;2023-03-14T00:44:50;10.43;;;4.40;;
6757;SDS011;3416;53.074;8.822;2023-03-14T00:47:17;10.13;;;4.90;;
6757;SDS011;3416;53.074;8.822;2023-03-14T00:49:44;6.22;;;4.78;;
6757;SDS011;3416;53.074;8.822;2023-03-14T00:52:13;6.28;;;4.63;;
6757;SDS011;3416;53.074;8.822;2023-03-14T00:54:40;6.80;;;3.80;;
6757;SDS011;3416;53.074;8.822;2023-03-14T00:57:07;8.82;;;4.45;;
6757;SDS011;3416;53.074;8.822;2023-03-14T00:59:34;8.77;;;4.38;;
6757;SDS011;3416;53.074;8.822;2023-03-14T01:02:01;8.55;;;5.05;;
6757;SDS011;3416;53.074;8.822;2023-03-14T01:04:28;7.80;;;4.45;;
6757;SDS011;3416;53.074;8.822;2023-03-14T01:07:02;10.98;;;5.13;;
6757;SDS011;3416;53.074;8.822;2023-03-14T01:09:30;13.65;;;5.95;;
6757;SDS011;3416;53.074;8.822;2023-03-14T01:11:57;10.02;;;6.10;;
6757;SDS011;3416;53.074;8.822;2023-03-14T01:14:24;9.98;;;6.22;;
6757;SDS011;3416;53.074;8.822;2023-03-14T01:16:51;8.95;;;5.85;;
6757;SDS011;3416;53.074;8.822;2023-03-14T01:19:18;9.95;;;7.05;;
6757;SDS011;3416;53.074;8.822;2023-03-14T01:21:45;9.30;;;6.13;;
6757;SDS011;3416;53.074;8.822;2023-03-14T01:24:12;12.65;;;6.50;;
6757;SDS011;3416;53.074;8.822;2023-03-14T01:26:40;16.10;;;7.30;;
6757;SDS011;3416;53.074;8.822;2023-03-14T01:29:07;15.43;;;8.55;;
6757;SDS011;3416;53.074;8.822;2023-03-14T01:31:34;8.93;;;6.97;;
6757;SDS011;3416;53.074;8.822;2023-03-14T01:34:01;9.40;;;6.15;;
6757;SDS011;3416;53.074;8.822;2023-03-14T01:36:28;14.48;;;6.80;;
6757;SDS011;3416;53.074;8.822;2023-03-14T01:38:55;14.05;;;6.93;;
6757;SDS011;3416;53.074;8.822;2023-03-14T01:41:23;13.15;;;7.45;;
6757;SDS011;3416;53.074;8.822;2023-03-14T01:43:53;9.38;;;6.68;;
6757;SDS011;3416;53.074;8.822;2023-03-14T01:46:25;9.18;;;6.50;;
6757;SDS011;3416;53.074;8.822;2023-03-14T01:49:07;10.98;;;6.75;;
6757;SDS011;3416;53.074;8.822;2023-03-14T01:51:41;9.07;;;6.68;;
6757;SDS011;3416;53.074;8.822;2023-03-14T01:54:13;9.48;;;6.22;;
6757;SDS011;3416;53.074;8.822;2023-03-14T01:56:45;9.93;;;6.43;;
6757;SDS011;3416;53.074;8.822;2023-03-14T01:59:18;7.28;;;6.40;;
6757;SDS011;3416;53.074;8.822;2023-03-14T02:01:46;11.30;;;6.63;;
6757;SDS011;3416;53.074;8.822;2023-03-14T02:04:16;8.45;;;6.57;;
6757;SDS011;3416;53.074;8.822;2023-03-14T02:06:47;8.85;;;5.82;;
6757;SDS011;3416;53.074;8.822;2023-03-14T02:09:17;9.73;;;5.90;;
6757;SDS011;3416;53.074;8.822;2023-03-14T02:11:46;10.30;;;6.03;;
6757;SDS011;3416;53.074;8.822;2023-03-14T02:14:15;9.40;;;5.82;;
6757;SDS011;3416;53.074;8.822;2023-03-14T02:16:54;11.57;;;6.18;;
6757;SDS011;3416;53.074;8.822;2023-03-14T02:19:25;8.07;;;5.40;;
6757;SDS011;3416;53.074;8.822;2023-03-14T02:22:02;7.50;;;5.55;;
6757;SDS011;3416;53.074;8.822;2023-03-14T02:24:34;13.55;;;8.55;;
6757;SDS011;3416;53.074;8.822;2023-03-14T02:27:11;11.07;;;6.53;;
6757;SDS011;3416;53.074;8.822;2023-03-14T02:29:40;12.05;;;6.20;;
6757;SDS011;3416;53.074;8.822;2023-03-14T02:32:16;10.00;;;6.47;;
6757;SDS011;3416;53.074;8.822;2023-03-14T02:34:44;6.80;;;5.22;;
6757;SDS011;3416;53.074;8.822;2023-03-14T02:37:17;13.18;;;7.05;;
6757;SDS011;3416;53.074;8.822;2023-03-14T02:39:48;10.00;;;6.68;;
6757;SDS011;3416;53.074;8.822;2023-03-14T02:42:17;8.45;;;6.88;;
6757;SDS011;3416;53.074;8.822;2023-03-14T02:44:54;8.25;;;6.28;;
6757;SDS011;3416;53.074;8.822;2023-03-14T02:47:27;11.93;;;5.65;;
6757;SDS011;3416;53.074;8.822;2023-03-14T02:49:59;9.05;;;7.05;;
6757;SDS011;3416;53.074;8.822;2023-03-14T02:52:28;10.23;;;5.65;;
6757;SDS011;3416;53.074;8.822;2023-03-14T02:54:55;10.68;;;5.43;;
6757;SDS011;3416;53.074;8.822;2023-03-14T02:57:24;8.10;;;5.07;;
6757;SDS011;3416;53.074;8.822;2023-03-14T02:59:51;6.32;;;5.03;;
6757;SDS011;3416;53.074;8.822;2023-03-14T03:02:18;11.02;;;5.47;;
6757;SDS011;3416;53.074;8.822;2023-03-14T03:04:45;7.72;;;4.43;;
6757;SDS011;3416;53.074;8.822;2023-03-14T03:07:12;8.45;;;4.75;;
6757;SDS011;3416;53.074;8.822;2023-03-14T03:09:39;9.00;;;4.30;;
6757;SDS011;3416;53.074;8.822;2023-03-14T03:12:06;7.10;;;3.95;;
6757;SDS011;3416;53.074;8.822;2023-03-14T03:14:35;8.68;;;3.95;;
6757;SDS011;3416;53.074;8.822;2023-03-14T03:17:02;11.32;;;3.83;;
6757;SDS011;3416;53.074;8.822;2023-03-14T03:19:30;9.57;;;4.43;;
6757;SDS011;3416;53.074;8.822;2023-03-14T03:21:57;8.02;;;4.30;;
6757;SDS011;3416;53.074;8.822;2023-03-14T03:24:24;8.13;;;3.05;;
6757;SDS011;3416;53.074;8.822;2023-03-14T03:26:51;6.63;;;3.42;;
6757;SDS011;3416;53.074;8.822;2023-03-14T03:29:19;7.75;;;4.22;;
6757;SDS011;3416;53.074;8.822;2023-03-14T03:31:47;6.90;;;3.83;;
6757;SDS011;3416;53.074;8.822;2023-03-14T03:34:14;6.35;;;3.85;;
6757;SDS011;3416;53.074;8.822;2023-03-14T03:36:41;9.60;;;4.43;;
6757;SDS011;3416;53.074;8.822;2023-03-14T03:39:08;11.02;;;5.10;;
6757;SDS011;3416;53.074;8.822;2023-03-14T03:41:35;13.32;;;5.65;;
6757;SDS011;3416;53.074;8.822;2023-03-14T03:44:02;14.80;;;5.60;;
6757;SDS011;3416;53.074;8.822;2023-03-14T03:46:30;6.25;;;4.95;;
6757;SDS011;3416;53.074;8.822;2023-03-14T03:48:59;10.13;;;5.53;;
6757;SDS011;3416;53.074;8.822;2023-03-14T03:51:26;8.93;;;5.07;;
6757;SDS011;3416;53.074;8.822;2023-03-14T03:53:54;5.32;;;4.70;;
6757;SDS011;3416;53.074;8.822;2023-03-14T03:56:22;13.13;;;5.40;;
6757;SDS011;3416;53.074;8.822;2023-03-14T03:58:50;11.75;;;5.15;;
6757;SDS011;3416;53.074;8.822;2023-03-14T04:01:17;8.93;;;6.07;;
6757;SDS011;3416;53.074;8.822;2023-03-14T04:03:45;11.15;;;4.60;;
6757;SDS011;3416;53.074;8.822;2023-03-14T04:06:13;11.75;;;4.38;;
6757;SDS011;3416;53.074;8.822;2023-03-14T04:08:40;11.05;;;4.25;;
6757;SDS011;3416;53.074;8.822;2023-03-14T04:11:08;9.85;;;4.95;;
6757;SDS011;3416;53.074;8.822;2023-03-14T04:13:35;10.30;;;4.07;;
6757;SDS011;3416;53.074;8.822;2023-03-14T04:16:08;7.97;;;3.78;;
6757;SDS011;3416;53.074;8.822;2023-03-14T04:18:40;7.88;;;4.80;;
6757;SDS011;3416;53.074;8.822;2023-03-14T04:21:07;8.07;;;4.72;;
6757;SDS011;3416;53.074;8.822;2023-03-14T04:23:35;10.13;;;4.97;;
6757;SDS011;3416;53.074;8.822;2023-03-14T04:26:03;11.43;;;4.43;;
6757;SDS011;3416;53.074;8.822;2023-03-14T04:28:30;7.85;;;4.55;;
6757;SDS011;3416;53.074;8.822;2023-03-14T04:30:57;10.20;;;4.38;;
6757;SDS011;3416;53.074;8.822;2023-03-14T04:33:24;11.75;;;4.43;;
6757;SDS011;3416;53.074;8.822;2023-03-14T04:35:53;7.57;;;4.07;;
6757;SDS011;3416;53.074;8.822;2023-03-14T04:38:20;6.78;;;4.95;;
6757;SDS011;3416;53.074;8.822;2023-03-14T04:40:49;9.50;;;5.15;;
6757;SDS011;3416;53.074;8.822;2023-03-14T04:43:17;9.40;;;4.38;;
6757;SDS011;3416;53.074;8.822;2023-03-14T04:45:43;10.45;;;6.45;;
6757;SDS011;3416;53.074;8.822;2023-03-14T04:48:11;6.97;;;4.72;;
6757;SDS011;3416;53.074;8.822;2023-03-14T04:50:38;6.25;;;4.90;;
6757;SDS011;3416;53.074;8.822;2023-03-14T04:53:05;6.03;;;4.13;;
6757;SDS011;3416;53.074;8.822;2023-03-14T04:55:33;9.93;;;5.15;;
6757;SDS011;3416;53.074;8.822;2023-03-14T04:58:03;13.48;;;4.82;;
6757;SDS011;3416;53.074;8.822;2023-03-14T05:00:30;8.23;;;4.20;;
6757;SDS011;3416;53.074;8.822;2023-03-14T05:02:57;12.32;;;4.38;;
6757;SDS011;3416;53.074;8.822;2023-03-14T05:05:24;7.30;;;4.35;;
6757;SDS011;3416;53.074;8.822;2023-03-14T05:07:51;6.07;;;4.35;;
6757;SDS011;3416;53.074;8.822;2023-03-14T05:10:18;8.00;;;3.67;;
6757;SDS011;3416;53.074;8.822;2023-03-14T05:12:45;7.35;;;4.50;;
6757;SDS011;3416;53.074;8.822;2023-03-14T05:15:13;8.07;;;4.45;;
6757;SDS011;3416;53.074;8.822;2023-03-14T05:17:40;8.75;;;4.03;;
6757;SDS011;3416;53.074;8.822;2023-03-14T05:20:08;16.30;;;3.80;;
6757;SDS011;3416;53.074;8.822;2023-03-14T05:22:38;11.23;;;2.72;;
6757;SDS011;3416;53.074;8.822;2023-03-14T05:25:05;3.70;;;2.30;;
6757;SDS011;3416;53.074;8.822;2023-03-14T05:27:33;6.65;;;2.55;;
6757;SDS011;3416;53.074;8.822;2023-03-14T05:30:00;5.53;;;2.05;;
6757;SDS011;3416;53.074;8.822;2023-03-14T05:32:29;5.22;;;2.22;;
6757;SDS011;3416;53.074;8.822;2023-03-14T05:34:56;8.05;;;2.10;;
6757;SDS011;3416;53.074;8.822;2023-03-14T05:37:24;6.47;;;2.30;;
6757;SDS011;3416;53.074;8.822;2023-03-14T05:39:51;4.10;;;1.90;;
6757;SDS011;3416;53.074;8.822;2023-03-14T05:42:18;4.45;;;1.60;;
6757;SDS011;3416;53.074;8.822;2023-03-14T05:44:46;7.97;;;1.80;;
6757;SDS011;3416;53.074;8.822;2023-03-14T05:47:13;7.88;;;2.40;;
6757;SDS011;3416;53.074;8.822;2023-03-14T05:49:41;4.60;;;1.85;;
6757;SDS011;3416;53.074;8.822;2023-03-14T05:52:08;9.88;;;2.42;;
6757;SDS011;3416;53.074;8.822;2023-03-14T05:54:35;3.80;;;2.13;;
6757;SDS011;3416;53.074;8.822;2023-03-14T05:57:02;4.20;;;1.80;;
6757;SDS011;3416;53.074;8.822;2023-03-14T05:59:29;7.57;;;1.58;;
6757;SDS011;3416;53.074;8.822;2023-03-14T06:01:56;12.27;;;2.88;;
6757;SDS011;3416;53.074;8.822;2023-03-14T06:04:24;9.20;;;2.85;;
6757;SDS011;3416;53.074;8.822;2023-03-14T06:06:53;8.65;;;2.70;;
6757;SDS011;3416;53.074;8.822;2023-03-14T06:09:20;3.38;;;1.33;;
6757;SDS011;3416;53.074;8.822;2023-03-14T06:11:48;6.90;;;2.50;;
6757;SDS011;3416;53.074;8.822;2023-03-14T06:14:15;3.00;;;1.67;;
6757;SDS011;3416;53.074;8.822;2023-03-14T06:16:42;1.75;;;1.08;;
6757;SDS011;3416;53.074;8.822;2023-03-14T06:19:09;5.85;;;1.55;;
6757;SDS011;3416;53.074;8.822;2023-03-14T06:21:36;7.40;;;1.95;;
6757;SDS011;3416;53.074;8.822;2023-03-14T06:24:05;1.33;;;1.08;;
6757;SDS011;3416;53.074;8.822;2023-03-14T06:26:33;4.82;;;1.50;;
6757;SDS011;3416;53.074;8.822;2023-03-14T06:29:00;1.83;;;1.13;;
6757;SDS011;3416;53.074;8.822;2023-03-14T06:31:28;3.85;;;1.35;;
6757;SDS011;3416;53.074;8.822;2023-03-14T06:33:56;7.20;;;1.95;;
6757;SDS011;3416;53.074;8.822;2023-03-14T06:36:24;6.60;;;1.80;;
6757;SDS011;3416;53.074;8.822;2023-03-14T06:38:51;3.53;;;1.45;;
6757;SDS011;3416;53.074;8.822;2023-03-14T06:41:19;2.95;;;1.20;;
6757;SDS011;3416;53.074;8.822;2023-03-14T06:43:48;12.93;;;3.80;;
6757;SDS011;3416;53.074;8.822;2023-03-14T06:46:15;5.15;;;1.75;;
6757;SDS011;3416;53.074;8.822;2023-03-14T06:48:42;3.88;;;1.73;;
6757;SDS011;3416;53.074;8.822;2023-03-14T06:51:09;6.07;;;2.63;;
6757;SDS011;3416;53.074;8.822;2023-03-14T06:53:36;5.28;;;1.50;;
6757;SDS011;3416;53.074;8.822;2023-03-14T06:56:04;3.90;;;1.80;;
6757;SDS011;3416;53.074;8.822;2023-03-14T06:58:33;2.85;;;1.52;;
6757;SDS011;3416;53.074;8.822;2023-03-14T07:01:00;5.00;;;1.70;;
6757;SDS011;3416;53.074;8.822;2023-03-14T07:03:27;5.05;;;1.95;;
6757;SDS011;3416;53.074;8.822;2023-03-14T07:05:54;6.65;;;2.38;;
6757;SDS011;3416;53.074;8.822;2023-03-14T07:08:22;4.90;;;1.70;;
6757;SDS011;3416;53.074;8.822;2023-03-14T07:10:49;3.75;;;2.00;;
6757;SDS011;3416;53.074;8.822;2023-03-14T07:13:16;8.10;;;1.90;;
6757;SDS011;3416;53.074;8.822;2023-03-14T07:15:45;7.38;;;2.10;;
6757;SDS011;3416;53.074;8.822;2023-03-14T07:18:12;5.65;;;2.58;;
6757;SDS011;3416;53.074;8.822;2023-03-14T07:20:39;8.90;;;2.53;;
6757;SDS011;3416;53.074;8.822;2023-03-14T07:23:07;12.38;;;2.42;;
6757;SDS011;3416;53.074;8.822;2023-03-14T07:25:34;11.75;;;3.63;;
6757;SDS011;3416;53.074;8.822;2023-03-14T07:28:01;6.03;;;2.92;;
6757;SDS011;3416;53.074;8.822;2023-03-14T07:30:28;6.47;;;2.17;;
6757;SDS011;3416;53.074;8.822;2023-03-14T07:32:56;5.65;;;2.40;;
6757;SDS011;3416;53.074;8.822;2023-03-14T07:35:23;4.70;;;2.38;;
6757;SDS011;3416;53.074;8.822;2023-03-14T07:37:51;5.32;;;2.13;;
6757;SDS011;3416;53.074;8.822;2023-03-14T07:40:18;6.80;;;2.25;;
6757;SDS011;3416;53.074;8.822;2023-03-14T07:42:45;6.18;;;2.30;;
6757;SDS011;3416;53.074;8.822;2023-03-14T07:45:13;10.02;;;3.13;;
6757;SDS011;3416;53.074;8.822;2023-03-14T07:47:41;16.83;;;3.63;;
6757;SDS011;3416;53.074;8.822;2023-03-14T07:50:10;11.07;;;2.47;;
6757;SDS011;3416;53.074;8.822;2023-03-14T07:52:37;5.38;;;2.40;;
6757;SDS011;3416;53.074;8.822;2023-03-14T07:55:04;10.90;;;2.95;;
6757;SDS011;3416;53.074;8.822;2023-03-14T07:57:32;10.82;;;2.35;;
6757;SDS011;3416;53.074;8.822;2023-03-14T07:59:58;12.90;;;2.63;;
6757;SDS011;3416;53.074;8.822;2023-03-14T08:02:25;5.22;;;2.03;;
6757;SDS011;3416;53.074;8.822;2023-03-14T08:04:52;5.05;;;3.00;;
6757;SDS011;3416;53.074;8.822;2023-03-14T08:07:21;7.53;;;2.80;;
6757;SDS011;3416;53.074;8.822;2023-03-14T08:09:47;9.88;;;2.92;;
6757;SDS011;3416;53.074;8.822;2023-03-14T08:12:15;13.43;;;3.10;;
6757;SDS011;3416;53.074;8.822;2023-03-14T08:14:48;12.20;;;3.65;;
6757;SDS011;3416;53.074;8.822;2023-03-14T08:17:15;9.77;;;2.80;;
6757;SDS011;3416;53.074;8.822;2023-03-14T08:19:43;4.18;;;2.17;;
6757;SDS011;3416;53.074;8.822;2023-03-14T08:22:10;9.20;;;4.38;;
6757;SDS011;3416;53.074;8.822;2023-03-14T08:24:38;7.93;;;2.83;;
6757;SDS011;3416;53.074;8.822;2023-03-14T08:27:06;7.15;;;2.75;;
6757;SDS011;3416;53.074;8.822;2023-03-14T08:29:33;9.55;;;2.20;;
6757;SDS011;3416;53.074;8.822;2023-03-14T08:32:00;6.78;;;3.03;;
6757;SDS011;3416;53.074;8.822;2023-03-14T08:34:27;5.18;;;2.20;;
6757;SDS011;3416;53.074;8.822;2023-03-14T08:36:54;8.70;;;2.40;;
6757;SDS011;3416;53.074;8.822;2023-03-14T08:39:21;7.40;;;2.33;;
6757;SDS011;3416;53.074;8.822;2023-03-14T08:41:50;5.03;;;2.38;;
6757;SDS011;3416;53.074;8.822;2023-03-14T08:44:17;4.72;;;2.10;;
6757;SDS011;3416;53.074;8.822;2023-03-14T08:46:45;10.52;;;2.30;;
6757;SDS011;3416;53.074;8.822;2023-03-14T08:49:13;5.75;;;1.95;;
6757;SDS011;3416;53.074;8.822;2023-03-14T08:51:41;8.65;;;2.95;;
6757;SDS011;3416;53.074;8.822;2023-03-14T08:54:09;2.13;;;1.67;;
6757;SDS011;3416;53.074;8.822;2023-03-14T08:56:37;6.45;;;1.95;;
6757;SDS011;3416;53.074;8.822;2023-03-14T08:59:05;4.78;;;2.08;;
6757;SDS011;3416;53.074;8.822;2023-03-14T09:01:33;7.45;;;2.80;;
6757;SDS011;3416;53.074;8.822;2023-03-14T09:04:00;4.10;;;1.50;;
6757;SDS011;3416;53.074;8.822;2023-03-14T09:06:27;5.38;;;2.58;;
6757;SDS011;3416;53.074;8.822;2023-03-14T09:08:54;2.90;;;1.77;;
6757;SDS011;3416;53.074;8.822;2023-03-14T09:11:21;4.25;;;1.70;;
6757;SDS011;3416;53.074;8.822;2023-03-14T09:13:47;4.13;;;2.88;;
6757;SDS011;3416;53.074;8.822;2023-03-14T09:16:17;7.53;;;3.28;;
6757;SDS011;3416;53.074;8.822;2023-03-14T09:18:44;6.70;;;1.88;;
6757;SDS011;3416;53.074;8.822;2023-03-14T09:21:11;2.58;;;1.30;;
6757;SDS011;3416;53.074;8.822;2023-03-14T09:23:38;4.00;;;1.25;;
6757;SDS011;3416;53.074;8.822;2023-03-14T09:26:06;4.70;;;1.45;;
6757;SDS011;3416;53.074;8.822;2023-03-14T09:28:33;3.78;;;1.00;;
6757;SDS011;3416;53.074;8.822;2023-03-14T09:31:05;4.65;;;1.25;;
6757;SDS011;3416;53.074;8.822;2023-03-14T09:33:34;7.75;;;1.52;;
6757;SDS011;3416;53.074;8.822;2023-03-14T09:36:02;2.13;;;1.08;;
6757;SDS011;3416;53.074;8.822;2023-03-14T09:38:30;4.88;;;1.60;;
6757;SDS011;3416;53.074;8.822;2023-03-14T09:40:59;3.30;;;1.55;;
6757;SDS011;3416;53.074;8.822;2023-03-14T09:43:27;7.00;;;1.48;;
6757;SDS011;3416;53.074;8.822;2023-03-14T09:45:59;15.52;;;1.80;;
6757;SDS011;3416;53.074;8.822;2023-03-14T09:48:30;2.40;;;1.08;;
6757;SDS011;3416;53.074;8.822;2023-03-14T09:51:01;3.22;;;1.10;;
6757;SDS011;3416;53.074;8.822;2023-03-14T09:53:34;7.93;;;1.20;;
6757;SDS011;3416;53.074;8.822;2023-03-14T09:56:07;3.58;;;1.70;;
6757;SDS011;3416;53.074;8.822;2023-03-14T09:58:42;2.17;;;0.85;;
6757;SDS011;3416;53.074;8.822;2023-03-14T10:01:15;1.52;;;1.00;;
6757;SDS011;3416;53.074;8.822;2023-03-14T10:03:45;1.45;;;0.93;;
6757;SDS011;3416;53.074;8.822;2023-03-14T10:06:15;4.53;;;1.90;;
6757;SDS011;3416;53.074;8.822;2023-03-14T10:08:42;2.65;;;0.95;;
6757;SDS011;3416;53.074;8.822;2023-03-14T10:11:13;1.60;;;1.20;;
6757;SDS011;3416;53.074;8.822;2023-03-14T10:13:49;1.33;;;0.80;;
6757;SDS011;3416;53.074;8.822;2023-03-14T10:16:28;2.35;;;0.85;;
6757;SDS011;3416;53.074;8.822;2023-03-14T10:19:01;2.20;;;0.80;;
6757;SDS011;3416;53.074;8.822;2023-03-14T10:21:32;3.30;;;1.20;;
6757;SDS011;3416;53.074;8.822;2023-03-14T10:26:53;2.55;;;0.77;;
6757;SDS011;3416;53.074;8.822;2023-03-14T10:29:23;1.15;;;1.02;;
6757;SDS011;3416;53.074;8.822;2023-03-14T10:31:52;2.33;;;1.15;;
6757;SDS011;3416;53.074;8.822;2023-03-14T10:34:24;4.03;;;2.47;;
6757;SDS011;3416;53.074;8.822;2023-03-14T10:36:54;1.10;;;0.70;;
6757;SDS011;3416;53.074;8.822;2023-03-14T10:39:24;2.45;;;1.08;;
6757;SDS011;3416;53.074;8.822;2023-03-14T10:42:03;1.45;;;1.02;;
6757;SDS011;3416;53.074;8.822;2023-03-14T10:44:33;2.25;;;1.00;;
6757;SDS011;3416;53.074;8.822;2023-03-14T10:47:02;2.20;;;1.33;;
6757;SDS011;3416;53.074;8.822;2023-03-14T10:49:30;1.10;;;0.68;;
6757;SDS011;3416;53.074;8.822;2023-03-14T10:52:13;1.92;;;1.42;;
6757;SDS011;3416;53.074;8.822;2023-03-14T10:54:46;1.15;;;0.98;;
6757;SDS011;3416;53.074;8.822;2023-03-14T10:57:14;4.93;;;1.15;;
6757;SDS011;3416;53.074;8.822;2023-03-14T10:59:42;2.03;;;1.13;;
6757;SDS011;3416;53.074;8.822;2023-03-14T11:02:22;2.17;;;1.00;;
6757;SDS011;3416;53.074;8.822;2023-03-14T11:05:11;5.75;;;1.48;;
6757;SDS011;3416;53.074;8.822;2023-03-14T11:07:49;3.25;;;2.00;;
6757;SDS011;3416;53.074;8.822;2023-03-14T11:10:20;2.80;;;1.17;;
6757;SDS011;3416;53.074;8.822;2023-03-14T11:12:57;1.75;;;0.98;;
6757;SDS011;3416;53.074;8.822;2023-03-14T11:15:36;5.13;;;1.45;;
6757;SDS011;3416;53.074;8.822;2023-03-14T11:21:13;1.98;;;1.02;;
6757;SDS011;3416;53.074;8.822;2023-03-14T11:23:46;4.47;;;1.27;;
6757;SDS011;3416;53.074;8.822;2023-03-14T11:26:25;6.05;;;1.92;;
6757;SDS011;3416;53.074;8.822;2023-03-14T11:28:57;4.93;;;1.60;;
6757;SDS011;3416;53.074;8.822;2023-03-14T11:31:29;4.95;;;1.85;;
6757;SDS011;3416;53.074;8.822;2023-03-14T11:34:00;5.78;;;1.73;;
6757;SDS011;3416;53.074;8.822;2023-03-14T11:36:32;6.65;;;1.67;;
6757;SDS011;3416;53.074;8.822;2023-03-14T11:39:09;3.17;;;1.65;;
6757;SDS011;3416;53.074;8.822;2023-03-14T11:41:40;8.52;;;1.63;;
6757;SDS011;3416;53.074;8.822;2023-03-14T11:44:10;6.65;;;2.25;;
6757;SDS011;3416;53.074;8.822;2023-03-14T11:46:46;4.95;;;2.30;;
6757;SDS011;3416;53.074;8.822;2023-03-14T11:49:22;5.53;;;2.33;;
6757;SDS011;3416;53.074;8.822;2023-03-14T11:51:57;7.57;;;2.10;;
6757;SDS011;3416;53.074;8.822;2023-03-14T11:54:33;4.05;;;1.60;;
6757;SDS011;3416;53.074;8.822;2023-03-14T11:57:09;10.25;;;3.05;;
6757;SDS011;3416;53.074;8.822;2023-03-14T11:59:41;8.45;;;2.70;;
6757;SDS011;3416;53.074;8.822;2023-03-14T12:02:16;22.70;;;2.22;;
6757;SDS011;3416;53.074;8.822;2023-03-14T12:04:50;4.30;;;1.75;;
6757;SDS011;3416;53.074;8.822;2023-03-14T12:07:43;8.30;;;2.15;;
6757;SDS011;3416;53.074;8.822;2023-03-14T12:10:31;7.18;;;2.22;;
6757;SDS011;3416;53.074;8.822;2023-03-14T12:13:04;21.60;;;2.70;;
6757;SDS011;3416;53.074;8.822;2023-03-14T12:15:34;8.02;;;2.85;;
6757;SDS011;3416;53.074;8.822;2023-03-14T12:18:14;9.05;;;2.70;;
6757;SDS011;3416;53.074;8.822;2023-03-14T12:20:50;6.10;;;2.10;;
6757;SDS011;3416;53.074;8.822;2023-03-14T12:23:20;13.02;;;3.80;;
6757;SDS011;3416;53.074;8.822;2023-03-14T12:25:48;17.67;;;3.47;;
6757;SDS011;3416;53.074;8.822;2023-03-14T12:28:34;11.70;;;2.80;;
6757;SDS011;3416;53.074;8.822;2023-03-14T12:34:01;10.57;;;3.08;;
6757;SDS011;3416;53.074;8.822;2023-03-14T12:39:21;15.40;;;3.33;;
6757;SDS011;3416;53.074;8.822;2023-03-14T12:42:02;10.60;;;2.88;;
6757;SDS011;3416;53.074;8.822;2023-03-14T12:44:38;12.27;;;2.42;;
6757;SDS011;3416;53.074;8.822;2023-03-14T12:50:13;11.85;;;3.47;;
6757;SDS011;3416;53.074;8.822;2023-03-14T12:52:46;15.73;;;3.30;;
6757;SDS011;3416;53.074;8.822;2023-03-14T12:55:24;15.98;;;2.75;;
6757;SDS011;3416;53.074;8.822;2023-03-14T12:58:02;6.22;;;2.40;;
6757;SDS011;3416;53.074;8.822;2023-03-14T13:00:37;6.88;;;2.72;;
6757;SDS011;3416;53.074;8.822;2023-03-14T13:03:13;15.57;;;3.60;;
6757;SDS011;3416;53.074;8.822;2023-03-14T13:05:53;14.50;;;4.00;;
6757;SDS011;3416;53.074;8.822;2023-03-14T13:08:32;12.80;;;3.67;;
6757;SDS011;3416;53.074;8.822;2023-03-14T13:11:05;9.35;;;2.58;;
6757;SDS011;3416;53.074;8.822;2023-03-14T13:13:42;12.52;;;2.90;;
6757;SDS011;3416;53.074;8.822;2023-03-14T13:16:16;8.52;;;2.47;;
6757;SDS011;3416;53.074;8.822;2023-03-14T13:18:51;5.82;;;2.50;;
6757;SDS011;3416;53.074;8.822;2023-03-14T13:21:27;9.48;;;2.88;;
6757;SDS011;3416;53.074;8.822;2023-03-14T13:24:00;3.58;;;1.63;;
6757;SDS011;3416;53.074;8.822;2023-03-14T13:26:34;6.68;;;2.00;;
6757;SDS011;3416;53.074;8.822;2023-03-14T13:29:09;6.88;;;2.80;;
6757;SDS011;3416;53.074;8.822;2023-03-14T13:31:43;41.22;;;5.03;;
6757;SDS011;3416;53.074;8.822;2023-03-14T13:34:11;15.13;;;3.10;;
6757;SDS011;3416;53.074;8.822;2023-03-14T13:36:38;11.30;;;1.98;;
6757;SDS011;3416;53.074;8.822;2023-03-14T13:39:12;12.32;;;2.72;;
6757;SDS011;3416;53.074;8.822;2023-03-14T13:41:40;14.98;;;5.55;;
6757;SDS011;3416;53.074;8.822;2023-03-14T13:44:13;12.55;;;3.55;;
6757;SDS011;3416;53.074;8.822;2023-03-14T13:46:44;6.75;;;2.83;;
6757;SDS011;3416;53.074;8.822;2023-03-14T13:49:13;7.72;;;2.40;;
6757;SDS011;3416;53.074;8.822;2023-03-14T13:51:47;11.75;;;3.25;;
6757;SDS011;3416;53.074;8.822;2023-03-14T13:54:15;11.07;;;2.13;;
6757;SDS011;3416;53.074;8.822;2023-03-14T13:56:43;7.50;;;2.38;;
6757;SDS011;3416;53.074;8.822;2023-03-14T13:59:22;20.75;;;3.40;;
6757;SDS011;3416;53.074;8.822;2023-03-14T14:01:49;6.63;;;3.97;;
6757;SDS011;3416;53.074;8.822;2023-03-14T14:04:18;12.43;;;2.35;;
6757;SDS011;3416;53.074;8.822;2023-03-14T14:06:49;8.50;;;2.47;;
6757;SDS011;3416;53.074;8.822;2023-03-14T14:09:19;7.60;;;2.67;;
6757;SDS011;3416;53.074;8.822;2023-03-14T14:11:50;6.25;;;2.00;;
6757;SDS011;3416;53.074;8.822;2023-03-14T14:14:23;4.68;;;1.92;;
6757;SDS011;3416;53.074;8.822;2023-03-14T14:16:53;12.90;;;2.13;;
6757;SDS011;3416;53.074;8.822;2023-03-14T14:19:23;6.57;;;1.70;;
6757;SDS011;3416;53.074;8.822;2023-03-14T14:21:53;5.35;;;1.98;;
6757;SDS011;3416;53.074;8.822;2023-03-14T14:24:22;6.20;;;2.05;;
6757;SDS011;3416;53.074;8.822;2023-03-14T14:26:51;5.28;;;2.00;;
6757;SDS011;3416;53.074;8.822;2023-03-14T14:29:25;8.30;;;2.15;;
6757;SDS011;3416;53.074;8.822;2023-03-14T14:32:03;10.80;;;2.15;;
6757;SDS011;3416;53.074;8.822;2023-03-14T14:34:41;12.60;;;2.83;;
6757;SDS011;3416;53.074;8.822;2023-03-14T14:37:18;11.05;;;3.00;;
6757;SDS011;3416;53.074;8.822;2023-03-14T14:39:46;7.35;;;2.22;;
6757;SDS011;3416;53.074;8.822;2023-03-14T14:42:14;4.90;;;1.63;;
6757;SDS011;3416;53.074;8.822;2023-03-14T14:44:48;4.18;;;1.45;;
6757;SDS011;3416;53.074;8.822;2023-03-14T14:47:17;7.72;;;1.80;;
6757;SDS011;3416;53.074;8.822;2023-03-14T14:49:47;4.57;;;1.70;;
6757;SDS011;3416;53.074;8.822;2023-03-14T14:52:15;8.68;;;2.30;;
6757;SDS011;3416;53.074;8.822;2023-03-14T14:54:44;11.38;;;2.30;;
6757;SDS011;3416;53.074;8.822;2023-03-14T14:57:17;12.30;;;2.47;;
6757;SDS011;3416;53.074;8.822;2023-03-14T14:59:47;10.63;;;2.00;;
6757;SDS011;3416;53.074;8.822;2023-03-14T15:02:29;11.05;;;5.03;;
6757;SDS011;3416;53.074;8.822;2023-03-14T15:05:01;9.65;;;2.47;;
6757;SDS011;3416;53.074;8.822;2023-03-14T15:07:28;9.95;;;2.47;;
6757;SDS011;3416;53.074;8.822;2023-03-14T15:09:55;10.07;;;2.08;;
6757;SDS011;3416;53.074;8.822;2023-03-14T15:12:22;6.53;;;2.42;;
6757;SDS011;3416;53.074;8.822;2023-03-14T15:14:51;7.80;;;2.67;;
6757;SDS011;3416;53.074;8.822;2023-03-14T15:17:20;7.07;;;1.83;;
6757;SDS011;3416;53.074;8.822;2023-03-14T15:19:47;11.70;;;1.95;;
6757;SDS011;3416;53.074;8.822;2023-03-14T15:22:14;7.03;;;1.90;;
6757;SDS011;3416;53.074;8.822;2023-03-14T15:24:41;7.68;;;1.80;;
6757;SDS011;3416;53.074;8.822;2023-03-14T15:27:10;7.15;;;2.47;;
6757;SDS011;3416;53.074;8.822;2023-03-14T15:29:40;9.70;;;2.05;;
6757;SDS011;3416;53.074;8.822;2023-03-14T15:32:11;10.18;;;2.78;;
6757;SDS011;3416;53.074;8.822;2023-03-14T15:34:39;5.88;;;2.35;;
6757;SDS011;3416;53.074;8.822;2023-03-14T15:37:08;11.82;;;2.53;;
6757;SDS011;3416;53.074;8.822;2023-03-14T15:39:37;6.07;;;2.33;;
6757;SDS011;3416;53.074;8.822;2023-03-14T15:42:04;6.15;;;2.00;;